Terminal Aerodrome Forecast
Issued by NWS Bismarck, ND

Home | Current Version | Previous Version | Text Only | Print | Product List | Glossary Off
Versions: 1 2 3 4 5 6 7 8 9 10 11 12 13 14 15 16 17 18 19 20 21

377
FTUS43 KBIS 271130
TAFISN
TAF
KISN 271130Z 2712/2812 VRB03KT P6SM VCFG BKN050
     FM271500 05007KT P6SM BKN035
     FM280400 06006KT P6SM BKN070
     FM280700 07006KT P6SM BKN035=

USA.gov is the U.S. government's official web portal to all federal, state and local government web resources and services.